地図

経路データ

SID SEASON NUMBER BASIN SUBBASIN NAME ISO_TIME NATURE LAT LON WMO_WIND WMO_PRES WMO_AGENCY TRACK_TYPE DIST2LAND LANDFALL IFLAG USA_AGENCY USA_ATCF_ID USA_LAT USA_LON USA_RECORD USA_STATUS USA_WIND USA_PRES USA_SSHS USA_R34_NE USA_R34_SE USA_R34_SW USA_R34_NW USA_R50_NE USA_R50_SE USA_R50_SW USA_R50_NW USA_R64_NE USA_R64_SE USA_R64_SW USA_R64_NW USA_POCI USA_ROCI USA_RMW USA_EYE TOKYO_LAT TOKYO_LON TOKYO_GRADE TOKYO_WIND TOKYO_PRES TOKYO_R50_DIR TOKYO_R50_LONG TOKYO_R50_SHORT TOKYO_R30_DIR TOKYO_R30_LONG TOKYO_R30_SHORT TOKYO_LAND CMA_LAT CMA_LON CMA_CAT CMA_WIND CMA_PRES HKO_LAT HKO_LON HKO_CAT HKO_WIND HKO_PRES NEWDELHI_LAT NEWDELHI_LON NEWDELHI_GRADE NEWDELHI_WIND NEWDELHI_PRES NEWDELHI_CI NEWDELHI_DP NEWDELHI_POCI REUNION_LAT REUNION_LON REUNION_TYPE REUNION_WIND REUNION_PRES REUNION_TNUM REUNION_CI REUNION_RMW REUNION_R34_NE REUNION_R34_SE REUNION_R34_SW REUNION_R34_NW REUNION_R50_NE REUNION_R50_SE REUNION_R50_SW REUNION_R50_NW REUNION_R64_NE REUNION_R64_SE REUNION_R64_SW REUNION_R64_NW BOM_LAT BOM_LON BOM_TYPE BOM_WIND BOM_PRES BOM_TNUM BOM_CI BOM_RMW BOM_R34_NE BOM_R34_SE BOM_R34_SW BOM_R34_NW BOM_R50_NE BOM_R50_SE BOM_R50_SW BOM_R50_NW BOM_R64_NE BOM_R64_SE BOM_R64_SW BOM_R64_NW BOM_ROCI BOM_POCI BOM_EYE BOM_POS_METHOD BOM_PRES_METHOD NADI_LAT NADI_LON NADI_CAT NADI_WIND NADI_PRES WELLINGTON_LAT WELLINGTON_LON WELLINGTON_WIND WELLINGTON_PRES DS824_LAT DS824_LON DS824_STAGE DS824_WIND DS824_PRES TD9636_LAT TD9636_LON TD9636_STAGE TD9636_WIND TD9636_PRES TD9635_LAT TD9635_LON TD9635_WIND TD9635_PRES TD9635_ROCI NEUMANN_LAT NEUMANN_LON NEUMANN_CLASS NEUMANN_WIND NEUMANN_PRES MLC_LAT MLC_LON MLC_CLASS MLC_WIND MLC_PRES USA_GUST BOM_GUST BOM_GUST_PER REUNION_GUST REUNION_GUST_PER USA_SEAHGT USA_SEARAD_NE USA_SEARAD_SE USA_SEARAD_SW USA_SEARAD_NW STORM_SPEED STORM_DIR
1985062S15170 1985 28 SP MM GAVIN 1985-03-02 12:00:00 NR -14.9000 169.900 30 997 wellington main 274 267 ________O_____ -1 -14.9000 169.900 30 997 3 162
1985062S15170 1985 28 SP MM GAVIN 1985-03-02 15:00:00 NR -15.0250 169.936 main 267 261 ________P_____ -1 -15.0250 169.936 30 997 3 162
1985062S15170 1985 28 SP MM GAVIN 1985-03-02 18:00:00 NR -15.1500 169.978 main 271 260 ________P_____ -1 -15.1500 169.978 30 997 3 160
1985062S15170 1985 28 SP MM GAVIN 1985-03-02 21:00:00 NR -15.2750 170.030 main 260 260 ________P_____ -1 -15.2750 170.030 30 997 3 92
1985062S15170 1985 28 SP MM GAVIN 1985-03-03 00:00:00 NR -15.1600 170.240 30 997 wellington main 284 284 ________O_O___ -1 -15.4000 170.100 30 997 -14.2000 170.800 1 3 72
1985062S15170 1985 28 SP MM GAVIN 1985-03-03 03:00:00 NR -15.1688 170.367 main 304 304 ________P_P___ -1 -15.5250 170.190 31 996 -14.4563 170.722 1 2 114
1985062S15170 1985 28 SP MM GAVIN 1985-03-03 06:00:00 NR -15.2472 170.444 main 304 299 ________P_P___ -1 -15.6500 170.292 32 996 -14.7101 170.645 1 2 151
1985062S15170 1985 28 SP MM GAVIN 1985-03-03 09:00:00 NR -15.3669 170.485 main 305 302 ________P_P___ -1 -15.7750 170.399 33 995 -14.9588 170.571 1 3 168
1985062S15170 1985 28 SP MM GAVIN 1985-03-03 12:00:00 NR -15.5500 170.500 35 995 wellington main 302 296 ________O_O___ -1 -15.9000 170.500 35 995 -15.2000 170.500 1 4 0
1985062S15170 1985 28 SP MM GAVIN 1985-03-03 15:00:00 NR -15.7211 170.498 main 296 292 ________P_P___ -1 -16.0086 170.558 36 993 -15.4336 170.438 1 3 179
1985062S15170 1985 28 SP MM GAVIN 1985-03-03 18:00:00 NR -15.8948 170.508 main 292 289 ________P_P___ -1 -16.1198 170.613 37 992 -15.6698 170.403 1 4 171
1985062S15170 1985 28 SP MM GAVIN 1985-03-03 21:00:00 NR -16.0836 170.551 main 299 298 ________P_P___ -1 -16.2461 170.686 38 991 -15.9211 170.416 1 4 161
1985062S15170 1985 28 SP MM GAVIN 1985-03-04 00:00:00 NR -16.3000 170.650 40 990 wellington main 309 298 ________O_O___ -1 -16.4000 170.800 40 990 -16.2000 170.500 1 5 151
1985062S15170 1985 28 SP MM GAVIN 1985-03-04 03:00:00 NR -16.5547 170.818 main 319 319 ________P_P___ -1 -16.5759 170.966 41 989 -16.5335 170.670 1 6 148
1985062S15170 1985 28 SP MM GAVIN 1985-03-04 06:00:00 TS -16.7900 170.974 main 341 341 O_______P_P_O_ jtwc_sh SH271985 -16.6000 170.700 XX 30 -5 -16.7824 171.175 42 988 -16.8926 170.910 1 -16.6000 170.700 TC 30 6 141
1985062S15170 1985 28 SP MM GAVIN 1985-03-04 09:00:00 TS -17.0019 171.201 main 364 364 P_______P_P_P_ SH271985 -16.7275 170.987 XX 32 -5 -17.0227 171.422 43 987 -17.2554 171.195 1 -16.7275 170.987 TC 32 6 132
1985062S15170 1985 28 SP MM GAVIN 1985-03-04 12:00:00 TS -17.2143 171.471 45 987 wellington main 399 399 O_______O_O_O_ jtwc_sh SH271985 -16.9000 171.300 XX 35 -5 -17.3000 171.700 45 987 -17.6000 171.500 2 -16.9000 171.300 TC 35 7 130
1985062S15170 1985 28 SP MM GAVIN 1985-03-04 15:00:00 TS -17.4500 171.764 main 437 437 P_______P_P_P_ SH271985 -17.1550 171.650 XX 35 -5 -17.6099 171.980 46 986 -17.8801 171.774 2 -17.1550 171.650 TC 35 8 134
1985062S15170 1985 28 SP MM GAVIN 1985-03-04 18:00:00 TS -17.7742 172.089 main 476 476 O_______P_P_O_ jtwc_sh SH271985 -17.5000 172.000 XX 35 -5 -17.9547 172.290 47 986 -18.1422 172.064 2 -17.5000 172.000 TC 35 9 139
1985062S15170 1985 28 SP MM GAVIN 1985-03-04 21:00:00 TS -18.1426 172.400 main 507 478 P_______P_P_P_ SH271985 -17.9199 172.300 XX 35 -5 -18.3223 172.630 48 985 -18.4082 172.371 2 -17.9199 172.300 TC 35 10 142
1985062S15170 1985 28 SP MM GAVIN 1985-03-05 00:00:00 TS -18.5500 172.725 50 985 wellington main 478 446 O_______O_O_O_ jtwc_sh SH271985 -18.4000 172.600 XX 35 -5 -18.7000 173.000 50 985 -18.7000 172.700 2 -18.4000 172.600 TC 35 11 142
1985062S15170 1985 28 SP MM GAVIN 1985-03-05 03:00:00 TS -18.9816 173.082 main 446 425 P_______P_P_P_ SH271985 -18.8999 172.935 XX 35 -5 -19.0761 173.404 50 985 -19.0503 173.053 2 -18.8999 172.935 TC 35 11 141
1985062S15170 1985 28 SP MM GAVIN 1985-03-05 06:00:00 TS -19.4213 173.466 main 420 405 O_______P_P_O_ jtwc_sh SH271985 -19.4000 173.300 XX 35 -5 -19.4577 173.835 50 985 -19.4275 173.427 2 -19.4000 173.300 TC 35 11 139
1985062S15170 1985 28 SP MM GAVIN 1985-03-05 09:00:00 TS -19.8378 173.868 main 401 391 P_______P_P_P_ SH271985 -19.8500 173.693 XX 35 -5 -19.8354 174.273 50 985 -19.8159 173.813 2 -19.8500 173.693 TC 35 11 137
1985062S15170 1985 28 SP MM GAVIN 1985-03-05 12:00:00 TS -20.2500 174.275 50 985 wellington main 391 390 O_______O_O_O_ jtwc_sh SH271985 -20.3000 174.100 XX 35 -5 -20.2000 174.700 50 985 -20.2000 174.200 2 -20.3000 174.100 TC 35 11 138
1985062S15170 1985 28 SP MM GAVIN 1985-03-05 15:00:00 TS -20.6749 174.660 main 398 398 P_______P_P_P_ SH271985 -20.7999 174.493 XX 37 -5 -20.5348 175.082 50 985 -20.5650 174.571 2 -20.7999 174.493 TC 37 11 139
1985062S15170 1985 28 SP MM GAVIN 1985-03-05 18:00:00 TS -21.0947 175.049 main 413 407 O_______P_P_O_ jtwc_sh SH271985 -21.3000 174.900 XX 40 -5 -20.8568 175.451 50 985 -20.9221 174.943 2 -21.3000 174.900 TC 40 11 138
1985062S15170 1985 28 SP MM GAVIN 1985-03-05 21:00:00 TS -21.4933 175.456 main 424 424 P_______P_P_P_ SH271985 -21.7649 175.343 XX 40 -5 -21.1754 175.820 50 985 -21.2681 175.318 2 -21.7649 175.343 TC 40 11 135
1985062S15170 1985 28 SP MM GAVIN 1985-03-06 00:00:00 TS -21.8750 175.875 50 985 wellington main 449 449 O_______O_O_O_ jtwc_sh SH271985 -22.2000 175.800 XX 40 -5 -21.5000 176.200 50 985 -21.6000 175.700 2 -22.2000 175.800 TC 40 11 134
1985062S15170 1985 28 SP MM GAVIN 1985-03-06 03:00:00 TS -22.2523 176.292 main 477 473 P_______P_P_P_ SH271985 -22.6222 176.235 XX 42 -5 -21.8507 176.607 50 985 -21.9141 176.089 2 -22.6222 176.235 TC 42 11 133
1985062S15170 1985 28 SP MM GAVIN 1985-03-06 06:00:00 TS -22.6054 176.728 main 496 494 O_______P_P_O_ jtwc_sh SH271985 -23.0000 176.700 XX 45 -5 -22.2072 177.028 50 985 -22.2146 176.486 2 -23.0000 176.700 TC 45 11 129
1985062S15170 1985 28 SP MM GAVIN 1985-03-06 09:00:00 TS -22.9281 177.201 main 519 519 P_______P_P_P_ SH271985 -23.3224 177.228 XX 45 -5 -22.5600 177.460 50 985 -22.5078 176.889 2 -23.3224 177.228 TC 45 11 125
1985062S15170 1985 28 SP MM GAVIN 1985-03-06 12:00:00 TS -23.2250 177.700 50 985 wellington main 548 548 O_______O_O_O_ jtwc_sh SH271985 -23.6000 177.800 XX 45 -5 -22.9000 177.900 50 985 -22.8000 177.300 2 -23.6000 177.800 TC 45 11 122
1985062S15170 1985 28 SP MM GAVIN 1985-03-06 15:00:00 TS -23.5068 178.215 main 581 581 P_______P_P_P_ SH271985 -23.8651 178.415 XX 47 -5 -23.2263 178.343 48 985 -23.0707 177.687 2 -23.8651 178.415 TC 47 11 120
1985062S15170 1985 28 SP MM GAVIN 1985-03-06 18:00:00 TS -23.7708 178.720 main 617 617 O_______P_P_O_ jtwc_sh SH271985 -24.1000 179.000 XX 50 -5 -23.5371 178.793 47 986 -23.3461 178.086 2 -24.1000 179.000 TC 50 10 120
1985062S15170 1985 28 SP MM GAVIN 1985-03-06 21:00:00 TS -24.0230 179.177 main 645 645 P_______P_P_P_ SH271985 -24.3071 179.473 XX 52 -5 -23.8294 179.246 46 986 -23.6485 178.516 2 -24.3071 179.473 TC 52 10 121
1985062S15170 1985 28 SP MM GAVIN 1985-03-07 00:00:00 TS -24.2750 179.625 45 987 wellington main 686 686 O_______O_O_O_ jtwc_sh SH271985 -24.5000 179.900 XX 55 -5 -24.1000 179.700 45 987 -24.0000 179.000 2 -24.5000 179.900 TC 55 10 121
1985062S15170 1985 28 SP MM GAVIN 1985-03-07 03:00:00 TS -24.5308 180.104 main 720 720 P_______P_P_P_ SH271985 -24.6924 -179.642 XX 55 -5 -24.2844 -179.883 43 987 -24.4538 179.582 2 -24.6924 -179.642 TC 55 10 121
1985062S15170 1985 28 SP MM GAVIN 1985-03-07 06:00:00 TS -24.8023 180.589 main 767 767 O_______P_P_O_ jtwc_sh SH271985 -24.9000 -179.200 XX 55 -5 -24.4582 -179.462 42 988 -24.9510 -179.783 2 -24.9000 -179.200 TC 55 10 123
1985062S15170 1985 28 SP MM GAVIN 1985-03-07 09:00:00 TS -25.0988 181.072 main 817 817 P_______P_P_P_ SH271985 -25.1349 -178.785 XX 55 -5 -24.6779 -179.010 41 989 -25.4476 -179.131 2 -25.1349 -178.785 TC 55 11 126
1985062S15170 1985 28 SP MM GAVIN 1985-03-07 12:00:00 TS -25.4250 181.550 40 990 wellington main 863 863 O_______O_O_O_ jtwc_sh SH271985 -25.4000 -178.400 XX 55 -5 -25.0000 -178.500 40 990 -25.9000 -178.500 2 -25.4000 -178.400 TC 55 11 128
1985062S15170 1985 28 SP MM GAVIN 1985-03-07 15:00:00 TS -25.7442 181.989 main 915 915 P_______P_P_P_ SH271985 -25.6395 -178.086 XX 52 -5 -25.4216 -177.949 40 990 -26.2763 -177.921 2 -25.6395 -178.086 TC 52 11 130
1985062S15170 1985 28 SP MM GAVIN 1985-03-07 18:00:00 TS -26.1061 182.462 main 976 976 O_______P_P_O_ jtwc_sh SH271985 -26.0000 -177.700 XX 50 -5 -25.9572 -177.327 40 990 -26.5875 -177.389 2 -26.0000 -177.700 TC 50 13 132
1985062S15170 1985 28 SP MM GAVIN 1985-03-07 21:00:00 TS -26.6088 183.042 main 1047 1047 P_______P_P_P_ SH271985 -26.5444 -177.146 XX 50 -5 -26.6143 -176.618 40 990 -26.8550 -176.887 2 -26.5444 -177.146 TC 50 17 136
1985062S15170 1985 28 SP MM GAVIN 1985-03-08 00:00:00 TS -27.3154 183.785 40 990 wellington main 1153 1153 O_______O_O_O_ jtwc_sh SH271985 -27.3000 -176.400 XX 50 -5 -27.4000 -175.800 40 990 -27.1000 -176.400 2 -27.3000 -176.400 TC 50 22 137
1985062S15170 1985 28 SP MM GAVIN 1985-03-08 03:00:00 TS -28.2034 184.698 main 1201 1152 P_______P___P_ SH271985 -28.2247 -175.481 XX 47 -5 -28.1608 -174.943 40 990 2 -28.2247 -175.481 TC 47 26 138
1985062S15170 1985 28 SP MM GAVIN 1985-03-08 06:00:00 TS -29.2200 185.746 main 1152 1116 O_______P___O_ jtwc_sh SH271985 -29.3000 -174.400 XX 45 -5 -29.0600 -173.963 40 990 2 -29.3000 -174.400 TC 45 29 138
1985062S15170 1985 28 SP MM GAVIN 1985-03-08 09:00:00 TS -30.3204 186.876 main 1123 1108 P_______P___P_ SH271985 -30.4035 -173.271 XX 45 -5 -30.1541 -172.829 40 990 2 -30.4035 -173.271 TC 45 32 138
1985062S15170 1985 28 SP MM GAVIN 1985-03-08 12:00:00 TS -31.5600 188.200 40 990 wellington main 1108 1108 O_______O___O_ jtwc_sh SH271985 -31.6000 -172.000 XX 45 -5 -31.5000 -171.500 40 990 -31.6000 -172.000 TC 45 37 138
1985062S15170 1985 28 SP MM GAVIN 1985-03-08 15:00:00 TS -33.0645 189.819 main 1134 1134 P_______P___P_ SH271985 -32.8818 -170.561 XX 42 -5 -33.2472 -169.801 40 990 -32.8818 -170.561 TC 42 45 138
1985062S15170 1985 28 SP MM GAVIN 1985-03-08 18:00:00 TS -34.8715 191.753 main 1219 1219 O_______P___O_ jtwc_sh SH271985 -34.2000 -169.000 XX 40 -5 -35.2073 -167.871 40 990 -34.2000 -169.000 TC 40 54 139
1985062S15170 1985 28 SP MM GAVIN 1985-03-08 21:00:00 NR -37.1858 194.128 main 1364 1364 ________P_____ SH271985 XX -5 -37.1858 -165.872 40 990 TC 53 141
1985062S15170 1985 28 SP MM GAVIN 1985-03-09 00:00:00 NR -39.0000 196.000 40 990 wellington main 1517 1517 ________O_____ XX -5 -39.0000 -164.000 40 990 43 141
1985062S15170 1985 28 SP MM GAVIN 1985-03-09 03:00:00 NR -40.5260 197.569 main 1660 1660 ________P_____ XX -5 -40.5260 -162.431 41 989 36 142
1985062S15170 1985 28 SP MM GAVIN 1985-03-09 06:00:00 NR -41.8133 198.861 main 1779 1779 ________P_____ -1 -41.8133 -161.139 42 988 30 144
1985062S15170 1985 28 SP MM GAVIN 1985-03-09 09:00:00 NR -42.9459 199.970 main 1882 1882 ________P_____ -1 -42.9459 -160.030 43 987 27 144
1985062S15170 1985 28 SP MM GAVIN 1985-03-09 12:00:00 NR -44.0000 201.000 45 987 wellington main 1975 ________O_____ -1 -44.0000 -159.000 45 987 26 145

デジタル台風データ・検索

IBTrACS Databaseについて

本データベースは、米国NOAAが公開する1842年以降の世界の熱帯低気圧のベストトラックデータアーカイブInternational Best Track Archive for Climate Stewardship (IBTrACS)を、ウェブで閲覧しやすい形式に変換したものです。

最終更新日:2021-10-21